createdAt,value
2018-12-19T00:01:01.012Z,1007.68
2018-12-19T00:02:11.140Z,1007.67
2018-12-19T00:03:21.185Z,1007.66
2018-12-19T00:04:31.273Z,1007.63
2018-12-19T00:05:41.387Z,1007.64
2018-12-19T00:06:51.443Z,1007.62
2018-12-19T00:08:01.701Z,1007.63
2018-12-19T00:09:11.750Z,1007.62
2018-12-19T00:10:21.555Z,1007.6
2018-12-19T00:11:31.646Z,1007.59
2018-12-19T00:12:41.683Z,1007.57
2018-12-19T00:13:51.735Z,1007.57
2018-12-19T00:15:01.529Z,1007.55
2018-12-19T00:16:11.623Z,1007.56
2018-12-19T00:17:21.685Z,1007.54
2018-12-19T00:18:31.491Z,1007.46
2018-12-19T00:19:41.542Z,1007.48
2018-12-19T00:20:51.601Z,1007.5
2018-12-19T00:22:01.666Z,1007.43
2018-12-19T00:23:11.463Z,1007.47
2018-12-19T00:24:21.516Z,1007.42
2018-12-19T00:25:31.382Z,1007.43
2018-12-19T00:26:41.188Z,1007.41
2018-12-19T00:27:51.250Z,1007.37
2018-12-19T00:29:01.466Z,1007.33
2018-12-19T00:30:11.287Z,1007.35
2018-12-19T00:31:21.395Z,1007.32
2018-12-19T00:32:31.457Z,1007.33
2018-12-19T00:33:41.236Z,1007.33
2018-12-19T00:34:51.021Z,1007.34
2018-12-19T00:36:01.063Z,1007.35
2018-12-19T00:37:11.119Z,1007.34
2018-12-19T00:38:21.161Z,1007.31
2018-12-19T00:39:30.688Z,1007.3
2018-12-19T00:40:40.742Z,1007.31
2018-12-19T00:41:50.288Z,1007.29
2018-12-19T00:43:00.485Z,1007.29
2018-12-19T00:44:10.543Z,1007.31
2018-12-19T00:45:20.350Z,1007.26
2018-12-19T00:46:30.403Z,1007.24
2018-12-19T00:47:40.450Z,1007.27
2018-12-19T00:48:50.240Z,1007.26
2018-12-19T00:50:00.021Z,1007.28
2018-12-19T00:51:11.244Z,1007.34
2018-12-19T00:52:21.295Z,1007.31
2018-12-19T00:53:31.342Z,1007.29
2018-12-19T00:54:41.145Z,1007.31
2018-12-19T00:55:50.670Z,1007.3
2018-12-19T00:57:00.768Z,1007.28
2018-12-19T00:58:10.580Z,1007.24
2018-12-19T00:59:20.626Z,1007.21
2018-12-19T01:00:30.883Z,1007.21
2018-12-19T01:01:40.974Z,1007.23
2018-12-19T01:02:51.019Z,1007.21
2018-12-19T01:04:01.075Z,1007.19
2018-12-19T01:05:10.874Z,1007.16
2018-12-19T01:06:20.992Z,1007.21
2018-12-19T01:07:30.519Z,1007.17
2018-12-19T01:08:40.562Z,1007.14
2018-12-19T01:09:50.363Z,1007.14
2018-12-19T01:10:59.899Z,1007.15
2018-12-19T01:12:10.107Z,1007.15
2018-12-19T01:13:20.141Z,1007.18
2018-12-19T01:14:30.199Z,1007.13
2018-12-19T01:15:40.226Z,1007.16
2018-12-19T01:16:50.018Z,1007.14
2018-12-19T01:18:00.059Z,1007.09
2018-12-19T01:19:10.104Z,1007.11
2018-12-19T01:20:20.185Z,1007.11
2018-12-19T01:21:30.214Z,1007.1
2018-12-19T01:22:40.286Z,1007.06
2018-12-19T01:23:50.140Z,1007.02
2018-12-19T01:25:01.359Z,1007.07
2018-12-19T01:26:11.427Z,1007.01
2018-12-19T01:27:21.239Z,1006.97
2018-12-19T01:28:31.281Z,1006.95
2018-12-19T01:29:41.083Z,1006.9
2018-12-19T01:30:51.120Z,1006.88
2018-12-19T01:32:00.970Z,1006.86
2018-12-19T01:33:11.017Z,1006.84
2018-12-19T01:34:21.069Z,1006.77
2018-12-19T01:35:30.876Z,1006.76
2018-12-19T01:36:40.915Z,1006.73
2018-12-19T01:37:50.712Z,1006.77
2018-12-19T01:39:00.796Z,1006.76
2018-12-19T01:40:10.842Z,1006.73
2018-12-19T01:41:20.374Z,1006.81
2018-12-19T01:42:30.405Z,1006.84
2018-12-19T01:43:40.192Z,1006.83
2018-12-19T01:44:50.234Z,1006.82
2018-12-19T01:46:00.034Z,1006.8
2018-12-19T01:47:10.192Z,1006.76
2018-12-19T01:48:20.232Z,1006.72
2018-12-19T01:49:30.282Z,1006.73
2018-12-19T01:50:40.078Z,1006.82
2018-12-19T01:51:49.861Z,1006.72
2018-12-19T01:52:59.925Z,1006.75
2018-12-19T01:54:09.957Z,1006.73
2018-12-19T01:55:19.494Z,1006.73
2018-12-19T01:56:29.544Z,1006.75
2018-12-19T01:57:39.585Z,1006.79
2018-12-19T01:58:49.437Z,1006.66
2018-12-19T01:59:59.476Z,1006.67
2018-12-19T02:01:09.530Z,1006.64
2018-12-19T02:02:19.324Z,1006.61
2018-12-19T02:03:29.381Z,1006.65
2018-12-19T02:04:39.165Z,1006.62
2018-12-19T02:05:49.217Z,1006.68
2018-12-19T02:06:59.271Z,1006.7
2018-12-19T02:08:09.075Z,1006.7
2018-12-19T02:09:19.114Z,1006.74
2018-12-19T02:10:34.225Z,1006.74
2018-12-19T02:11:44.268Z,1006.69
2018-12-19T02:12:54.315Z,1006.71
2018-12-19T02:14:04.361Z,1006.69
2018-12-19T02:15:14.191Z,1006.72
2018-12-19T02:16:24.260Z,1006.71
2018-12-19T02:17:34.059Z,1006.69
2018-12-19T02:18:44.094Z,1006.7
2018-12-19T02:19:54.139Z,1006.69
2018-12-19T02:21:04.220Z,1006.65
2018-12-19T02:22:14.310Z,1006.69
2018-12-19T02:23:24.326Z,1006.6
2018-12-19T02:24:34.377Z,1006.6
2018-12-19T02:25:44.435Z,1006.56
2018-12-19T02:26:54.460Z,1006.56
2018-12-19T02:28:04.503Z,1006.54
2018-12-19T02:29:14.539Z,1006.55
2018-12-19T02:30:24.362Z,1006.51
2018-12-19T02:31:34.423Z,1006.5
2018-12-19T02:32:44.236Z,1006.48
2018-12-19T02:33:53.784Z,1006.52
2018-12-19T02:35:03.832Z,1006.48
2018-12-19T02:36:13.885Z,1006.48
2018-12-19T02:37:23.955Z,1006.52
2018-12-19T02:38:33.509Z,1006.49
2018-12-19T02:39:43.576Z,1006.51
2018-12-19T02:40:53.637Z,1006.51
2018-12-19T02:42:03.893Z,1006.54
2018-12-19T02:43:13.929Z,1006.52
2018-12-19T02:44:23.466Z,1006.51
2018-12-19T02:45:33.251Z,1006.51
2018-12-19T02:46:43.051Z,1006.45
2018-12-19T02:47:53.138Z,1006.46
2018-12-19T02:49:03.193Z,1006.44
2018-12-19T02:50:12.999Z,1006.47
2018-12-19T02:51:22.847Z,1006.44
2018-12-19T02:52:32.992Z,1006.41
2018-12-19T02:53:43.044Z,1006.41
2018-12-19T02:54:52.853Z,1006.48
2018-12-19T02:56:02.646Z,1006.42
2018-12-19T02:57:12.766Z,1006.43
2018-12-19T02:58:22.824Z,1006.41
2018-12-19T02:59:32.613Z,1006.42
2018-12-19T03:00:42.645Z,1006.46
2018-12-19T03:01:52.704Z,1006.42
2018-12-19T03:03:02.558Z,1006.44
2018-12-19T03:34:47.130Z,1006.12
2018-12-19T03:35:57.187Z,1006.11
2018-12-19T03:37:07.769Z,1006.1
2018-12-19T03:38:17.560Z,1006.11
2018-12-19T03:39:27.596Z,1006.11
2018-12-19T03:40:37.650Z,1006.03
2018-12-19T03:41:47.746Z,1006.1
2018-12-19T03:42:57.807Z,1006.02
2018-12-19T03:44:08.010Z,1006.04
2018-12-19T03:45:18.060Z,1005.93
2018-12-19T03:46:28.167Z,1005.98
2018-12-19T03:47:38.273Z,1005.9
2018-12-19T03:48:48.342Z,1005.92
2018-12-19T03:49:58.406Z,1006
2018-12-19T03:51:09.036Z,1005.91
2018-12-19T03:52:19.111Z,1006
2018-12-19T03:53:28.925Z,1005.87
2018-12-19T03:54:39.049Z,1005.82
2018-12-19T03:55:49.101Z,1005.88
2018-12-19T03:56:59.164Z,1005.83
2018-12-19T03:58:09.005Z,1005.79
2018-12-19T03:59:19.049Z,1005.77
2018-12-19T04:00:29.099Z,1005.78
2018-12-19T04:01:39.151Z,1005.7
2018-12-19T04:02:48.944Z,1005.73
2018-12-19T04:03:59.052Z,1005.68
2018-12-19T04:05:09.127Z,1005.7
2018-12-19T04:06:19.187Z,1005.63
2018-12-19T04:07:29.009Z,1005.62
2018-12-19T04:08:39.056Z,1005.66
2018-12-19T04:09:49.183Z,1005.62
2018-12-19T04:11:05.897Z,1005.68
2018-12-19T04:12:15.969Z,1005.66
2018-12-19T04:13:26.022Z,1005.71
2018-12-19T04:14:36.072Z,1005.71
2018-12-19T04:15:46.283Z,1005.71
2018-12-19T04:16:56.340Z,1005.76
2018-12-19T04:18:06.919Z,1005.75
2018-12-19T04:19:16.982Z,1005.71
2018-12-19T04:20:27.047Z,1005.76
2018-12-19T04:21:37.097Z,1005.82
2018-12-19T04:22:47.146Z,1005.81
2018-12-19T04:23:57.206Z,1005.86
2018-12-19T04:25:07.281Z,1005.88
2018-12-19T04:26:17.070Z,1005.86
2018-12-19T04:27:27.132Z,1005.87
2018-12-19T04:28:37.177Z,1005.85
2018-12-19T04:29:47.081Z,1005.83
2018-12-19T04:30:57.144Z,1005.85
2018-12-19T04:32:07.201Z,1005.81
2018-12-19T04:33:17.377Z,1005.83
2018-12-19T04:34:27.445Z,1005.81
2018-12-19T04:35:37.485Z,1005.8
2018-12-19T04:36:47.538Z,1005.76
2018-12-19T04:37:57.592Z,1005.77
2018-12-19T04:39:07.499Z,1005.79
2018-12-19T04:40:17.536Z,1005.74
2018-12-19T04:41:27.595Z,1005.69
2018-12-19T04:42:37.656Z,1005.67
2018-12-19T04:43:47.697Z,1005.7
2018-12-19T04:44:57.490Z,1005.62
2018-12-19T04:46:07.539Z,1005.61
2018-12-19T04:47:17.338Z,1005.69
2018-12-19T04:48:26.881Z,1005.62
2018-12-19T04:49:36.960Z,1005.65
2018-12-19T04:50:46.768Z,1005.61
2018-12-19T04:51:56.819Z,1005.66
2018-12-19T04:53:06.881Z,1005.65
2018-12-19T04:54:17.586Z,1005.65
2018-12-19T04:55:27.647Z,1005.72
2018-12-19T04:56:37.450Z,1005.72
2018-12-19T04:57:47.505Z,1005.75
2018-12-19T04:58:57.554Z,1005.77
2018-12-19T05:00:07.600Z,1005.78
2018-12-19T05:01:17.669Z,1005.79
2018-12-19T05:02:27.764Z,1005.74
2018-12-19T05:03:37.838Z,1005.72
2018-12-19T05:04:47.891Z,1005.71
2018-12-19T05:05:57.693Z,1005.76
2018-12-19T05:07:09.150Z,1005.77
2018-12-19T05:08:19.195Z,1005.73
2018-12-19T05:09:29.246Z,1005.74
2018-12-19T05:10:39.278Z,1005.7
2018-12-19T05:11:49.324Z,1005.7
2018-12-19T05:12:59.381Z,1005.72
2018-12-19T05:14:09.569Z,1005.74
2018-12-19T05:15:19.625Z,1005.72
2018-12-19T05:16:29.684Z,1005.76
2018-12-19T05:17:39.484Z,1005.76
2018-12-19T05:18:49.565Z,1005.76
2018-12-19T05:19:59.657Z,1005.77
2018-12-19T05:21:09.734Z,1005.76
2018-12-19T05:22:19.761Z,1005.76
2018-12-19T05:23:29.557Z,1005.67
2018-12-19T05:24:39.606Z,1005.64
2018-12-19T05:25:49.406Z,1005.62
2018-12-19T05:26:59.452Z,1005.6
2018-12-19T05:28:09.527Z,1005.62
2018-12-19T05:29:19.580Z,1005.54
2018-12-19T05:30:29.382Z,1005.58
2018-12-19T05:31:39.434Z,1005.52
2018-12-19T05:32:49.486Z,1005.41
2018-12-19T05:33:59.530Z,1005.45
2018-12-19T05:35:09.562Z,1005.4
2018-12-19T05:36:19.605Z,1005.38
2018-12-19T05:37:29.757Z,1005.4
2018-12-19T05:38:39.816Z,1005.37
2018-12-19T05:39:49.862Z,1005.37
2018-12-19T05:40:59.927Z,1005.36
2018-12-19T05:42:09.970Z,1005.4
2018-12-19T05:43:20.022Z,1005.29
2018-12-19T05:44:30.071Z,1005.25
2018-12-19T05:45:40.131Z,1005.3
2018-12-19T05:46:49.663Z,1005.3
2018-12-19T05:47:59.193Z,1005.26
2018-12-19T05:49:09.229Z,1005.28
2018-12-19T05:50:19.268Z,1005.29
2018-12-19T05:51:29.059Z,1005.25
2018-12-19T05:52:38.847Z,1005.29
2018-12-19T05:53:48.633Z,1005.31
2018-12-19T05:54:58.700Z,1005.3
2018-12-19T05:56:08.748Z,1005.29
2018-12-19T05:57:18.538Z,1005.25
2018-12-19T05:58:28.313Z,1005.27
2018-12-19T05:59:37.869Z,1005.24
2018-12-19T06:00:47.910Z,1005.3
2018-12-19T06:01:57.715Z,1005.18
2018-12-19T06:03:07.761Z,1005.24
2018-12-19T06:04:17.820Z,1005.26
2018-12-19T06:05:27.869Z,1005.28
2018-12-19T06:06:37.724Z,1005.32
2018-12-19T06:07:47.757Z,1005.32
2018-12-19T06:08:57.550Z,1005.33
2018-12-19T06:10:07.602Z,1005.35
2018-12-19T06:11:17.657Z,1005.4
2018-12-19T06:12:27.721Z,1005.37
2018-12-19T06:13:37.794Z,1005.36
2018-12-19T06:14:47.823Z,1005.36
2018-12-19T06:15:57.624Z,1005.32
2018-12-19T06:17:07.672Z,1005.3
2018-12-19T06:18:17.828Z,1005.25
2018-12-19T06:19:27.640Z,1005.25
2018-12-19T06:20:37.705Z,1005.24
2018-12-19T06:21:47.492Z,1005.2
2018-12-19T06:22:57.545Z,1005.24
2018-12-19T06:24:07.586Z,1005.21
2018-12-19T06:25:17.659Z,1005.27
2018-12-19T06:26:27.715Z,1005.25
2018-12-19T06:27:37.768Z,1005.31
2018-12-19T06:28:47.564Z,1005.28
2018-12-19T06:29:57.629Z,1005.23
2018-12-19T06:31:07.427Z,1005.24
2018-12-19T06:32:17.492Z,1005.2
2018-12-19T06:33:27.290Z,1005.22
2018-12-19T06:34:37.334Z,1005.17
2018-12-19T06:35:47.376Z,1005.11
2018-12-19T06:36:57.178Z,1005.08
2018-12-19T06:38:06.971Z,1005
2018-12-19T06:39:17.064Z,1004.99
2018-12-19T06:40:32.551Z,1004.96
2018-12-19T06:41:43.107Z,1004.98
2018-12-19T06:42:52.919Z,1004.98
2018-12-19T06:44:02.989Z,1004.94
2018-12-19T06:45:13.104Z,1004.96
2018-12-19T06:46:23.161Z,1004.98
2018-12-19T06:47:33.209Z,1004.93
2018-12-19T06:48:43.264Z,1004.9
2018-12-19T06:49:53.075Z,1004.88
2018-12-19T06:51:03.228Z,1004.91
2018-12-19T06:52:13.255Z,1004.98
2018-12-19T06:53:23.361Z,1005.01
2018-12-19T06:54:33.397Z,1005.05
2018-12-19T06:55:43.456Z,1005.05
2018-12-19T06:56:53.250Z,1005.11
2018-12-19T06:58:03.290Z,1005.06
2018-12-19T06:59:12.898Z,1005.1
2018-12-19T07:00:22.712Z,1005.1
2018-12-19T07:01:32.510Z,1005.09
2018-12-19T07:02:42.372Z,1005.23
2018-12-19T07:03:52.439Z,1005.16
2018-12-19T07:05:02.489Z,1005.18
2018-12-19T07:06:12.536Z,1005.18
2018-12-19T07:07:22.586Z,1005.08
2018-12-19T07:08:32.378Z,1005.09
2018-12-19T07:09:42.172Z,1005.13
2018-12-19T07:10:52.233Z,1005.06
2018-12-19T07:12:02.301Z,1005.09
2018-12-19T07:13:12.444Z,1005.12
2018-12-19T07:14:22.558Z,1005.19
2018-12-19T07:15:32.600Z,1005.16
2018-12-19T07:16:43.518Z,1005.26
2018-12-19T07:17:53.456Z,1005.23
2018-12-19T07:19:03.262Z,1005.24
2018-12-19T07:20:13.319Z,1005.26
2018-12-19T07:21:23.373Z,1005.2
2018-12-19T07:22:33.811Z,1005.2
2018-12-19T07:23:43.612Z,1005.19
2018-12-19T07:24:53.662Z,1005.14
2018-12-19T07:26:04.188Z,1005.16
2018-12-19T07:27:13.984Z,1005.2
2018-12-19T07:28:24.044Z,1005.18
2018-12-19T07:29:34.090Z,1005.17
2018-12-19T07:30:43.890Z,1005.15
2018-12-19T07:31:53.936Z,1005.15
2018-12-19T07:33:03.975Z,1005.15
2018-12-19T07:34:14.054Z,1005.14
2018-12-19T07:35:24.129Z,1005.14
2018-12-19T07:36:34.192Z,1005.18
2018-12-19T07:37:44.235Z,1005.18
2018-12-19T07:38:54.293Z,1005.16
2018-12-19T07:40:04.405Z,1005.2
2018-12-19T07:41:14.455Z,1005.2
2018-12-19T07:42:24.502Z,1005.2
2018-12-19T07:43:34.299Z,1005.03
2018-12-19T07:44:44.342Z,1005.1
2018-12-19T07:45:54.407Z,1005.16
2018-12-19T07:47:04.229Z,1005.12
2018-12-19T07:48:14.282Z,1005.13
2018-12-19T07:49:24.352Z,1005.12
2018-12-19T07:50:34.148Z,1005.1
2018-12-19T07:51:43.955Z,1005.16
2018-12-19T07:52:53.757Z,1005.18
2018-12-19T07:54:03.814Z,1005.15
2018-12-19T07:55:13.901Z,1005.08
2018-12-19T07:56:23.946Z,1005.06
2018-12-19T07:57:34.128Z,1005.13
2018-12-19T07:58:43.943Z,1005.03
2018-12-19T07:59:53.996Z,1005.08
2018-12-19T08:01:04.064Z,1005.06
2018-12-19T08:02:14.133Z,1005.1
2018-12-19T08:03:24.201Z,1005.08
2018-12-19T08:04:34.270Z,1005.04
2018-12-19T08:05:44.073Z,1005.1
2018-12-19T08:06:54.137Z,1005.1
2018-12-19T08:08:04.214Z,1005.09
2018-12-19T08:09:14.276Z,1005.13
2018-12-19T08:10:24.320Z,1005.16
2018-12-19T08:11:34.383Z,1005.19
2018-12-19T08:12:44.448Z,1005.17
2018-12-19T08:13:54.244Z,1005.14
2018-12-19T08:15:04.290Z,1005.19
2018-12-19T08:16:14.349Z,1005.23
2018-12-19T08:17:24.167Z,1005.14
2018-12-19T08:18:34.220Z,1005.17
2018-12-19T08:19:44.046Z,1005.14
2018-12-19T08:20:54.204Z,1005.11
2018-12-19T08:22:04.268Z,1005.13
2018-12-19T08:23:14.063Z,1005.2
2018-12-19T08:24:24.123Z,1005.12
2018-12-19T08:25:33.935Z,1005.11
2018-12-19T08:26:43.732Z,1005.08
2018-12-19T08:27:53.792Z,1005.06
2018-12-19T08:29:03.852Z,1005.08
2018-12-19T08:30:13.902Z,1005.1
2018-12-19T08:31:23.954Z,1005.12
2018-12-19T08:32:34.059Z,1005.11
2018-12-19T08:33:44.129Z,1005.09
2018-12-19T08:34:54.184Z,1005.11
2018-12-19T08:36:04.232Z,1005.11
2018-12-19T08:37:14.304Z,1005.12
2018-12-19T08:38:24.427Z,1005.11
2018-12-19T08:39:34.507Z,1005.07
2018-12-19T08:40:44.566Z,1005.11
2018-12-19T08:41:59.410Z,1005.09
2018-12-19T08:43:09.280Z,1005.07
2018-12-19T08:44:19.334Z,1005.04
2018-12-19T08:45:29.792Z,1005.08
2018-12-19T08:46:39.631Z,1005.06
2018-12-19T08:47:49.783Z,1005.07
2018-12-19T08:48:59.914Z,1005.06
2018-12-19T08:50:09.987Z,1005.08
2018-12-19T08:51:20.052Z,1005.11
2018-12-19T08:52:30.101Z,1005.03
2018-12-19T08:53:39.903Z,1005.13
2018-12-19T08:54:49.953Z,1005.08
2018-12-19T08:56:00.060Z,1005.05
2018-12-19T08:57:10.110Z,1005.09
2018-12-19T08:58:20.174Z,1005.13
2018-12-19T08:59:30.223Z,1005.14
2018-12-19T09:00:40.334Z,1005.21
2018-12-19T09:01:50.388Z,1005.17
2018-12-19T09:03:02.851Z,1005.22
2018-12-19T09:04:12.920Z,1005.24
2018-12-19T09:05:28.767Z,1005.31
2018-12-19T09:06:38.826Z,1005.26
2018-12-19T09:07:48.927Z,1005.25
2018-12-19T09:08:59.017Z,1005.23
2018-12-19T09:10:08.833Z,1005.15
2018-12-19T09:11:18.640Z,1005.11
2018-12-19T09:12:28.713Z,1005.21
2018-12-19T09:13:38.832Z,1005.22
2018-12-19T09:14:48.909Z,1005.17
2018-12-19T09:15:58.991Z,1005.11
2018-12-19T09:17:09.041Z,1005.11
2018-12-19T09:18:19.119Z,1005.14
2018-12-19T09:19:29.174Z,1005.2
2018-12-19T09:20:39.220Z,1005.16
2018-12-19T09:21:49.289Z,1005.16
2018-12-19T09:22:59.363Z,1005.15
2018-12-19T09:24:09.184Z,1005.08
2018-12-19T09:25:19.320Z,1005.05
2018-12-19T09:26:29.417Z,1005.13
2018-12-19T09:27:39.493Z,1005.13
2018-12-19T09:28:49.546Z,1005.13
2018-12-19T09:29:59.645Z,1005.05
2018-12-19T09:31:09.718Z,1005.02
2018-12-19T09:32:19.787Z,1005.1
2018-12-19T09:33:29.853Z,1005.03
2018-12-19T09:34:39.912Z,1005.03
2018-12-19T09:35:49.954Z,1004.97
2018-12-19T09:37:00.066Z,1004.96
2018-12-19T09:38:09.867Z,1004.82
2018-12-19T09:39:19.684Z,1004.98
2018-12-19T09:40:29.822Z,1004.79
2018-12-19T09:41:39.904Z,1004.94
2018-12-19T09:42:50.008Z,1004.93
2018-12-19T09:44:00.056Z,1004.97
2018-12-19T09:45:11.542Z,1004.96
2018-12-19T09:46:21.655Z,1004.98
2018-12-19T09:47:31.695Z,1004.94
2018-12-19T09:48:41.729Z,1005.01
2018-12-19T09:49:51.802Z,1005.08
2018-12-19T09:51:01.854Z,1005.01
2018-12-19T09:52:11.919Z,1005
2018-12-19T09:53:21.993Z,1005.03
2018-12-19T09:54:32.042Z,1004.99
2018-12-19T09:55:42.195Z,1005.09
2018-12-19T09:56:53.448Z,1005.03
2018-12-19T09:58:03.607Z,1005
2018-12-19T09:59:13.413Z,1005.03
2018-12-19T10:00:23.206Z,1005
2018-12-19T10:01:33.256Z,1004.96
2018-12-19T10:02:43.338Z,1004.94
2018-12-19T10:03:54.721Z,1004.91
2018-12-19T10:05:06.750Z,1004.83
2018-12-19T10:06:16.615Z,1004.86
2018-12-19T10:07:27.152Z,1004.77
2018-12-19T10:08:37.282Z,1004.73
2018-12-19T10:09:47.363Z,1004.72
2018-12-19T10:10:57.430Z,1004.77
2018-12-19T10:12:07.721Z,1004.75
2018-12-19T10:13:18.072Z,1004.77
2018-12-19T10:14:31.709Z,1004.66
2018-12-19T10:15:42.713Z,1004.76
2018-12-19T10:17:10.219Z,1004.8
2018-12-19T10:18:45.828Z,1004.79
2018-12-19T10:20:16.603Z,1004.74
2018-12-19T10:21:29.046Z,1004.7
2018-12-19T10:22:42.194Z,1004.69
2018-12-19T10:23:55.303Z,1004.73
2018-12-19T10:25:07.687Z,1004.74
2018-12-19T10:26:22.258Z,1004.75
2018-12-19T10:27:34.870Z,1004.79
2018-12-19T10:28:48.702Z,1004.8
2018-12-19T10:30:03.779Z,1004.7
2018-12-19T10:31:16.395Z,1004.73
2018-12-19T10:32:29.876Z,1004.68
2018-12-19T10:33:53.642Z,1004.65
2018-12-19T10:35:14.817Z,1004.74
2018-12-19T10:36:35.047Z,1004.8
2018-12-19T10:37:51.877Z,1004.83
2018-12-19T10:39:05.813Z,1004.81
2018-12-19T10:40:19.388Z,1004.83
2018-12-19T10:41:30.843Z,1004.81
2018-12-19T10:42:43.154Z,1004.79
2018-12-19T10:43:55.463Z,1004.72
2018-12-19T10:45:09.091Z,1004.71
2018-12-19T10:46:21.245Z,1004.68
2018-12-19T10:47:32.009Z,1004.66
2018-12-19T10:48:43.385Z,1004.6
2018-12-19T10:49:55.451Z,1004.55
2018-12-19T10:55:53.120Z,1004.53
2018-12-19T10:57:03.608Z,1004.55
2018-12-19T10:58:13.699Z,1004.58
2018-12-19T10:59:23.786Z,1004.66
2018-12-19T11:00:33.872Z,1004.55
2018-12-19T11:01:44.024Z,1004.59
2018-12-19T11:02:54.097Z,1004.59
2018-12-19T11:04:04.213Z,1004.6
2018-12-19T11:05:14.046Z,1004.69
2018-12-19T11:06:24.428Z,1004.63
2018-12-19T11:07:34.522Z,1004.65
2018-12-19T11:08:44.316Z,1004.63
2018-12-19T11:09:54.126Z,1004.63
2018-12-19T11:11:04.204Z,1004.66
2018-12-19T11:12:14.287Z,1004.57
2018-12-19T11:13:24.360Z,1004.63
2018-12-19T11:14:34.460Z,1004.63
2018-12-19T11:15:44.534Z,1004.66
2018-12-19T11:16:54.620Z,1004.63
2018-12-19T11:18:04.705Z,1004.62
2018-12-19T11:19:14.877Z,1004.6
2018-12-19T11:20:24.685Z,1004.58
2018-12-19T11:21:34.545Z,1004.54
2018-12-19T11:22:44.666Z,1004.5
2018-12-19T11:23:54.961Z,1004.54
2018-12-19T11:25:05.048Z,1004.5
2018-12-19T11:26:15.110Z,1004.51
2018-12-19T11:27:25.170Z,1004.48
2018-12-19T11:28:35.235Z,1004.37
2018-12-19T11:29:45.052Z,1004.42
2018-12-19T11:30:55.248Z,1004.52
2018-12-19T11:32:05.655Z,1004.53
2018-12-19T11:33:15.729Z,1004.45
2018-12-19T11:34:25.808Z,1004.44
2018-12-19T11:35:35.874Z,1004.49
2018-12-19T11:36:45.939Z,1004.47
2018-12-19T11:37:56.612Z,1004.49
2018-12-19T11:39:08.776Z,1004.47
2018-12-19T11:40:18.854Z,1004.45
2018-12-19T11:41:28.664Z,1004.43
2018-12-19T11:42:44.459Z,1004.41
2018-12-19T11:43:54.528Z,1004.45
2018-12-19T11:45:04.590Z,1004.47
2018-12-19T11:46:14.398Z,1004.42
2018-12-19T11:47:24.472Z,1004.41
2018-12-19T11:48:34.838Z,1004.42
2018-12-19T11:49:44.909Z,1004.4
2018-12-19T11:50:54.758Z,1004.36
2018-12-19T11:52:05.557Z,1004.38
2018-12-19T11:53:15.629Z,1004.39
2018-12-19T11:54:25.768Z,1004.4
2018-12-19T11:55:39.394Z,1004.35
2018-12-19T11:56:49.469Z,1004.37
2018-12-19T11:57:59.567Z,1004.31
2018-12-19T11:59:11.038Z,1004.32
2018-12-19T12:00:20.898Z,1004.31
2018-12-19T12:01:30.970Z,1004.29
2018-12-19T12:05:06.036Z,1004.29
2018-12-19T12:06:16.002Z,1004.28
2018-12-19T12:07:26.098Z,1004.33
2018-12-19T12:08:35.914Z,1004.32
2018-12-19T12:09:45.812Z,1004.3
2018-12-19T12:10:55.907Z,1004.3
2018-12-19T12:12:08.231Z,1004.28
2018-12-19T12:13:18.315Z,1004.25
2018-12-19T12:14:28.168Z,1004.22
2018-12-19T12:15:38.250Z,1004.15
2018-12-19T12:16:48.323Z,1004.2
2018-12-19T12:17:58.405Z,1004.15
2018-12-19T12:19:10.870Z,1004.17
2018-12-19T12:20:20.442Z,1004.22
2018-12-19T12:21:30.517Z,1004.2
2018-12-19T12:22:41.217Z,1004.14
2018-12-19T12:23:51.399Z,1004.12
2018-12-19T12:25:03.026Z,1004.15
2018-12-19T12:26:12.852Z,1004.13
2018-12-19T12:27:23.215Z,1004.11
2018-12-19T12:28:33.352Z,1004.11
2018-12-19T12:29:43.280Z,1004.16
2018-12-19T12:30:53.123Z,1004.13
2018-12-19T12:32:03.253Z,1004.11
2018-12-19T12:33:13.313Z,1004.13
2018-12-19T12:34:23.408Z,1004.06
2018-12-19T12:35:33.471Z,1004.08
2018-12-19T12:36:43.591Z,1004.12
2018-12-19T12:37:53.700Z,1004.21
2018-12-19T12:39:06.247Z,1004.22
2018-12-19T12:40:16.046Z,1004.23
2018-12-19T12:41:25.865Z,1004.23
2018-12-19T12:42:36.699Z,1004.23
2018-12-19T12:43:46.772Z,1004.22
2018-12-19T12:44:56.879Z,1004.16
2018-12-19T12:46:06.707Z,1004.17
2018-12-19T12:47:16.787Z,1004.14
2018-12-19T12:48:26.891Z,1004.14
2018-12-19T12:49:37.013Z,1004.15
2018-12-19T12:50:47.130Z,1004.11
2018-12-19T12:51:56.962Z,1004.12
2018-12-19T12:53:07.231Z,1004.14
2018-12-19T12:54:17.150Z,1004.13
2018-12-19T12:55:27.296Z,1004.09
2018-12-19T12:56:37.498Z,1004.1
2018-12-19T12:57:47.733Z,1004.09
2018-12-19T12:58:57.519Z,1004.07
2018-12-19T13:00:07.641Z,1003.99
2018-12-19T13:01:18.200Z,1004.01
2018-12-19T13:02:28.075Z,1003.99
2018-12-19T13:03:38.132Z,1003.99
2018-12-19T13:04:48.229Z,1003.97
2018-12-19T13:05:58.038Z,1003.97
2018-12-19T13:07:08.111Z,1003.99
2018-12-19T13:08:18.262Z,1004.01
2018-12-19T13:09:28.329Z,1004.04
2018-12-19T13:10:38.152Z,1004.08
2018-12-19T13:11:48.204Z,1004.07
2018-12-19T13:13:04.117Z,1004.03
2018-12-19T13:14:14.011Z,1004.04
2018-12-19T13:15:24.091Z,1004.05
2018-12-19T13:16:34.231Z,1004.01
2018-12-19T13:17:44.325Z,1003.98
2018-12-19T13:18:54.402Z,1003.92
2018-12-19T13:20:05.221Z,1003.91
2018-12-19T13:21:15.304Z,1003.91
2018-12-19T13:22:25.137Z,1003.88
2018-12-19T13:23:35.227Z,1003.82
2018-12-19T13:24:45.303Z,1003.85
2018-12-19T13:25:55.385Z,1003.86
2018-12-19T13:27:05.298Z,1003.89
2018-12-19T13:28:15.358Z,1003.96
2018-12-19T13:29:25.461Z,1003.93
2018-12-19T13:30:35.547Z,1004
2018-12-19T13:31:45.652Z,1004
2018-12-19T13:32:55.713Z,1003.98
2018-12-19T13:34:05.788Z,1003.98
2018-12-19T13:35:15.402Z,1003.96
2018-12-19T13:36:25.483Z,1003.94
2018-12-19T13:37:35.578Z,1003.93
2018-12-19T13:38:45.663Z,1003.94
2018-12-19T13:39:55.765Z,1003.92
2018-12-19T13:41:07.687Z,1003.94
2018-12-19T13:42:17.752Z,1003.94
2018-12-19T13:43:27.804Z,1003.92
2018-12-19T13:44:37.869Z,1003.94
2018-12-19T13:45:47.947Z,1003.89
2018-12-19T13:46:58.019Z,1003.9
2018-12-19T13:48:10.020Z,1003.92
2018-12-19T13:49:19.821Z,1003.91
2018-12-19T13:50:29.621Z,1003.84
2018-12-19T13:51:39.687Z,1003.9
2018-12-19T13:52:49.771Z,1003.84
2018-12-19T13:53:59.842Z,1003.88
2018-12-19T13:55:09.953Z,1003.79
2018-12-19T13:56:19.756Z,1003.79
2018-12-19T13:57:29.798Z,1003.83
2018-12-19T13:58:39.851Z,1003.79
2018-12-19T13:59:49.901Z,1003.82
2018-12-19T14:00:59.706Z,1003.86
2018-12-19T14:02:09.508Z,1003.84
2018-12-19T14:03:19.567Z,1003.84
2018-12-19T14:04:29.614Z,1003.86
2018-12-19T14:05:39.692Z,1003.86
2018-12-19T14:06:49.781Z,1003.88
2018-12-19T14:07:59.849Z,1003.87
2018-12-19T14:09:09.917Z,1003.81
2018-12-19T14:10:19.719Z,1003.78
2018-12-19T14:11:29.513Z,1003.82
2018-12-19T14:12:39.314Z,1003.82
2018-12-19T14:13:49.366Z,1003.8
2018-12-19T14:14:59.162Z,1003.81
2018-12-19T14:16:09.243Z,1003.73
2018-12-19T14:17:19.029Z,1003.62
2018-12-19T14:18:29.108Z,1003.77
2018-12-19T14:19:39.181Z,1003.8
2018-12-19T14:20:49.261Z,1003.81
2018-12-19T14:21:59.363Z,1003.76
2018-12-19T14:23:09.506Z,1003.79
2018-12-19T14:24:19.597Z,1003.75
2018-12-19T14:25:29.682Z,1003.77
2018-12-19T14:26:39.756Z,1003.73
2018-12-19T14:27:49.856Z,1003.72
2018-12-19T14:29:00.370Z,1003.75
2018-12-19T14:30:10.530Z,1003.75
2018-12-19T14:31:20.344Z,1003.69
2018-12-19T14:32:30.415Z,1003.67
2018-12-19T14:33:40.484Z,1003.69
2018-12-19T14:34:50.560Z,1003.64
2018-12-19T14:36:00.621Z,1003.66
2018-12-19T14:37:10.680Z,1003.63
2018-12-19T14:38:20.750Z,1003.59
2018-12-19T14:39:30.287Z,1003.58
2018-12-19T14:40:40.416Z,1003.64
2018-12-19T14:41:50.218Z,1003.7
2018-12-19T14:43:00.029Z,1003.63
2018-12-19T14:44:10.114Z,1003.64
2018-12-19T14:45:20.186Z,1003.62
2018-12-19T14:46:29.987Z,1003.64
2018-12-19T14:47:39.805Z,1003.65
2018-12-19T14:48:49.890Z,1003.63
2018-12-19T14:49:59.966Z,1003.63
2018-12-19T14:51:10.023Z,1003.66
2018-12-19T14:52:20.103Z,1003.72